Time;durP1;ratioP1;P1;durP2;ratioP2;P2;SDS_P1;SDS_P2;PMS_P1;PMS_P2;Temp;Humidity;BMP_temperature;BMP_pressure;BME280_temperature;BME280_humidity;BME280_pressure;Samples;Min_cycle;Max_cycle;Signal;HPM_P1;HPM_P2
2022/11/25 00:01:10;;;;;;;19.52;5.95;;;11.60;99.90;;;;;;5135144;27;20660;-60
2022/11/25 00:03:36;;;;;;;18.50;5.18;;;11.50;99.90;;;;;;5135071;27;20621;-60
2022/11/25 00:06:16;;;;;;;16.38;5.03;;;11.40;99.90;;;;;;5135317;27;20175;-60
2022/11/25 00:08:43;;;;;;;20.48;5.40;;;11.40;99.90;;;;;;5134987;27;20563;-60
2022/11/25 00:11:10;;;;;;;15.32;5.00;;;11.30;99.90;;;;;;5134948;27;20176;-60
2022/11/25 00:13:36;;;;;;;16.85;5.03;;;11.20;99.90;;;;;;5134836;27;20267;-61
2022/11/25 00:16:08;;;;;;;19.55;5.10;;;11.30;99.90;;;;;;5134803;27;20165;-61
2022/11/25 00:18:35;;;;;;;16.30;4.75;;;11.30;99.90;;;;;;5135273;27;20264;-61
2022/11/25 00:21:12;;;;;;;19.52;4.93;;;11.10;99.90;;;;;;5135217;27;20232;-60
2022/11/25 00:23:38;;;;;;;14.13;4.32;;;11.20;99.90;;;;;;5135044;27;20487;-60
2022/11/25 00:26:11;;;;;;;13.77;4.03;;;11.00;99.90;;;;;;5116486;27;20179;-60
2022/11/25 00:28:37;;;;;;;8.90;3.28;;;10.90;99.90;;;;;;5134545;27;20206;-60
2022/11/25 00:31:14;;;;;;;11.52;3.47;;;10.90;99.90;;;;;;5134274;27;20714;-60
2022/11/25 00:33:40;;;;;;;10.43;3.25;;;11.00;99.90;;;;;;5134460;27;20174;-60
2022/11/25 00:36:15;;;;;;;9.07;2.53;;;11.00;99.90;;;;;;5134430;27;20506;-61
2022/11/25 00:38:41;;;;;;;8.38;2.60;;;10.90;99.90;;;;;;5134467;27;20524;-60
2022/11/25 00:46:34;;;;;;;8.57;2.30;;;11.00;99.90;;;;;;5118894;27;20187;-61
2022/11/25 00:49:00;;;;;;;8.00;2.15;;;10.90;99.90;;;;;;5115955;27;20628;-61
2022/11/25 00:51:26;;;;;;;5.80;1.90;;;10.90;99.90;;;;;;5134304;27;20237;-60
2022/11/25 00:53:51;;;;;;;8.88;2.58;;;11.00;99.90;;;;;;5116241;27;20175;-60
2022/11/25 00:56:17;;;;;;;4.28;1.73;;;11.00;99.90;;;;;;5134411;27;20682;-60
2022/11/25 00:58:44;;;;;;;6.35;1.88;;;10.90;99.90;;;;;;5134385;27;20177;-60
2022/11/25 01:01:11;;;;;;;4.95;1.92;;;10.80;99.90;;;;;;5134171;27;20172;-60
2022/11/25 01:03:37;;;;;;;4.05;1.60;;;10.70;99.90;;;;;;5098970;28;20200;-60
2022/11/25 01:06:08;;;;;;;6.88;1.77;;;10.60;99.90;;;;;;5134085;28;20176;-61
2022/11/25 01:08:35;;;;;;;3.10;1.40;;;10.60;99.90;;;;;;5134231;28;20204;-61
2022/11/25 01:11:03;;;;;;;3.17;1.27;;;10.70;99.90;;;;;;5115706;28;20180;-60
2022/11/25 01:13:29;;;;;;;4.50;1.40;;;10.80;99.90;;;;;;5134079;28;20598;-61
2022/11/25 01:15:54;;;;;;;4.80;1.48;;;10.90;99.90;;;;;;5134142;28;20263;-61
2022/11/25 01:18:20;;;;;;;3.60;1.60;;;10.90;99.90;;;;;;5133971;28;20525;-60
2022/11/25 01:20:46;;;;;;;3.03;1.25;;;11.10;99.90;;;;;;5098619;28;20180;-61
2022/11/25 01:23:11;;;;;;;3.60;1.10;;;10.90;99.90;;;;;;5133941;28;20200;-60
2022/11/25 01:25:38;;;;;;;3.60;1.30;;;10.80;99.90;;;;;;5115712;28;20172;-60
2022/11/25 01:28:04;;;;;;;4.63;1.45;;;11.00;99.90;;;;;;5134000;28;20208;-61
2022/11/25 01:30:30;;;;;;;7.13;1.50;;;10.70;99.90;;;;;;5133943;28;20169;-60
2022/11/25 01:32:56;;;;;;;4.97;0.90;;;10.80;99.90;;;;;;5115498;28;20172;-60
2022/11/25 01:35:22;;;;;;;4.22;1.25;;;10.90;99.90;;;;;;5133906;28;20251;-60
2022/11/25 01:37:48;;;;;;;4.25;1.30;;;10.80;99.90;;;;;;5134063;28;20181;-60
2022/11/25 01:40:14;;;;;;;4.70;1.48;;;10.90;99.90;;;;;;5133775;28;20571;-60
2022/11/25 01:42:44;;;;;;;3.13;1.20;;;10.80;99.90;;;;;;5115621;27;20191;-61
2022/11/25 01:45:22;;;;;;;2.47;0.93;;;10.90;99.90;;;;;;5137912;27;20175;-60
2022/11/25 01:47:49;;;;;;;4.93;1.33;;;11.00;99.90;;;;;;5137645;27;20210;-60
2022/11/25 01:50:19;;;;;;;3.33;1.00;;;11.00;99.90;;;;;;5137760;27;20169;-60
2022/11/25 01:52:49;;;;;;;5.13;1.08;;;10.90;99.90;;;;;;5119647;27;20240;-60
2022/11/25 01:55:21;;;;;;;7.13;1.15;;;11.00;99.90;;;;;;5137691;27;20192;-60
2022/11/25 01:57:53;;;;;;;2.90;1.30;;;11.20;99.90;;;;;;5137661;27;20629;-60
2022/11/25 02:00:19;;;;;;;3.85;1.33;;;11.20;99.90;;;;;;5137551;27;20171;-60
2022/11/25 02:02:48;;;;;;;3.60;1.17;;;11.30;99.90;;;;;;5137424;27;20188;-60
2022/11/25 02:05:18;;;;;;;3.25;1.20;;;11.40;99.90;;;;;;5137466;27;20647;-60
2022/11/25 02:07:47;;;;;;;3.40;1.02;;;11.40;99.90;;;;;;5137532;27;20176;-60
2022/11/25 02:10:21;;;;;;;5.35;1.13;;;11.30;99.90;;;;;;5137486;27;20187;-60
2022/11/25 02:12:47;;;;;;;4.80;1.40;;;11.00;99.90;;;;;;5137313;27;20705;-60
2022/11/25 02:15:14;;;;;;;2.95;0.95;;;11.10;99.90;;;;;;5137481;27;20176;-60
2022/11/25 02:17:41;;;;;;;4.60;1.30;;;11.20;99.90;;;;;;5137171;27;20749;-60
2022/11/25 02:20:10;;;;;;;3.50;1.13;;;11.20;99.90;;;;;;5137175;27;20259;-60
2022/11/25 02:22:42;;;;;;;7.60;1.08;;;11.10;99.90;;;;;;5137119;27;20179;-60
2022/11/25 02:25:25;;;;;;;4.40;1.33;;;11.00;99.90;;;;;;5137019;27;20174;-60
2022/11/25 02:27:56;;;;;;;3.90;1.05;;;11.20;99.90;;;;;;5137174;27;20200;-60
2022/11/25 02:30:21;;;;;;;2.55;1.00;;;11.20;99.90;;;;;;5137037;27;20189;-61
2022/11/25 02:32:48;;;;;;;3.25;1.20;;;11.20;99.90;;;;;;5136922;27;20218;-60
2022/11/25 02:35:32;;;;;;;3.45;1.30;;;11.20;99.90;;;;;;5118677;27;20179;-60
2022/11/25 02:38:21;;;;;;;3.28;1.23;;;11.20;99.90;;;;;;5137122;27;20168;-60
2022/11/25 02:40:57;;;;;;;3.45;1.20;;;11.10;99.90;;;;;;5136809;27;20590;-60
2022/11/25 02:43:22;;;;;;;2.55;0.80;;;10.90;99.90;;;;;;5136743;27;20254;-60
2022/11/25 02:45:56;;;;;;;3.67;1.10;;;11.00;99.90;;;;;;5136625;27;20693;-61
2022/11/25 02:48:23;;;;;;;2.75;1.08;;;10.90;99.90;;;;;;5136692;27;20212;-60
2022/11/25 02:50:49;;;;;;;3.60;1.17;;;10.70;99.90;;;;;;5136688;27;20172;-60
2022/11/25 02:53:15;;;;;;;2.72;1.02;;;10.60;99.90;;;;;;5136666;27;20617;-60
2022/11/25 02:55:41;;;;;;;2.40;1.10;;;10.50;99.90;;;;;;5135631;27;20183;-60
2022/11/25 02:58:07;;;;;;;3.65;1.17;;;10.40;99.90;;;;;;5136428;27;20268;-60
2022/11/25 03:00:33;;;;;;;4.07;1.40;;;10.30;99.90;;;;;;5118206;27;20267;-60
2022/11/25 03:02:58;;;;;;;5.25;1.40;;;10.30;99.90;;;;;;5118167;27;20264;-60
2022/11/25 03:05:24;;;;;;;4.22;1.33;;;10.30;99.90;;;;;;5100981;27;20596;-60
2022/11/25 03:07:50;;;;;;;5.78;1.50;;;10.10;99.90;;;;;;5136289;27;20222;-60
2022/11/25 03:10:16;;;;;;;5.18;1.75;;;10.00;99.90;;;;;;5136346;27;20176;-60
2022/11/25 03:12:42;;;;;;;6.53;1.73;;;10.00;99.90;;;;;;5136150;27;20645;-60
2022/11/25 03:15:08;;;;;;;3.88;1.55;;;9.80;99.90;;;;;;5100608;27;20177;-60
2022/11/25 03:17:34;;;;;;;5.78;2.10;;;9.90;99.90;;;;;;5136206;27;20529;-60
2022/11/25 03:20:00;;;;;;;4.35;1.92;;;9.80;99.90;;;;;;5135969;27;20180;-60
2022/11/25 03:22:25;;;;;;;3.90;2.05;;;9.80;99.90;;;;;;5117835;27;20196;-60
2022/11/25 03:24:51;;;;;;;7.32;2.13;;;9.90;99.90;;;;;;5117739;27;20577;-60
2022/11/25 03:27:17;;;;;;;7.78;2.47;;;9.80;99.90;;;;;;5117444;27;20225;-60
2022/11/25 03:29:42;;;;;;;7.25;2.40;;;9.90;99.90;;;;;;5135650;27;20261;-60
2022/11/25 03:32:08;;;;;;;6.80;2.42;;;9.90;99.90;;;;;;5136016;27;20207;-60
2022/11/25 03:34:34;;;;;;;5.85;2.75;;;9.90;99.90;;;;;;5135896;27;20180;-60
2022/11/25 03:36:59;;;;;;;7.53;2.88;;;9.90;99.90;;;;;;5135688;27;20181;-60
2022/11/25 03:39:25;;;;;;;7.82;2.72;;;9.80;99.90;;;;;;5117496;27;20177;-60
2022/11/25 03:41:51;;;;;;;8.07;2.60;;;9.70;99.90;;;;;;5135424;27;20180;-60
2022/11/25 03:44:16;;;;;;;9.50;3.03;;;9.70;99.90;;;;;;5135458;27;20272;-60
2022/11/25 03:46:42;;;;;;;9.60;3.20;;;9.80;99.90;;;;;;5117398;27;20666;-60
2022/11/25 03:49:08;;;;;;;8.13;3.28;;;9.80;99.90;;;;;;5135576;27;20211;-60
2022/11/25 03:51:33;;;;;;;10.57;3.45;;;9.70;99.90;;;;;;5117214;27;20499;-60
2022/11/25 03:53:59;;;;;;;6.60;2.67;;;9.70;99.90;;;;;;5135431;27;20169;-60
2022/11/25 03:56:25;;;;;;;7.95;2.83;;;9.70;99.90;;;;;;5135280;27;20175;-60
2022/11/25 03:58:50;;;;;;;7.60;3.05;;;9.90;99.90;;;;;;5135230;27;20598;-60
2022/11/25 04:01:16;;;;;;;9.43;3.25;;;9.90;99.90;;;;;;5135222;27;20539;-60
2022/11/25 04:03:42;;;;;;;10.55;3.63;;;10.00;99.90;;;;;;5135176;27;20216;-60
2022/11/25 04:06:07;;;;;;;11.23;3.00;;;10.00;99.90;;;;;;5135005;27;20176;-60
2022/11/25 04:08:33;;;;;;;11.00;3.00;;;10.10;99.90;;;;;;5116439;27;20208;-60
2022/11/25 04:10:59;;;;;;;12.27;3.78;;;10.30;99.90;;;;;;5116964;27;20286;-60
2022/11/25 04:13:24;;;;;;;9.38;3.33;;;10.30;99.90;;;;;;5099576;27;20179;-60
2022/11/25 04:15:50;;;;;;;10.93;3.45;;;10.40;99.90;;;;;;5134852;27;20306;-60
2022/11/25 04:18:17;;;;;;;11.15;3.65;;;10.40;99.90;;;;;;5134962;27;20181;-60
2022/11/25 04:20:44;;;;;;;10.55;3.67;;;10.40;99.90;;;;;;5134934;27;20176;-60
2022/11/25 04:23:11;;;;;;;14.00;4.22;;;10.40;99.90;;;;;;5134971;27;20229;-60
2022/11/25 04:25:37;;;;;;;10.27;4.00;;;10.40;99.90;;;;;;5134838;27;20176;-60
2022/11/25 04:28:03;;;;;;;12.80;4.15;;;10.40;99.90;;;;;;5116175;27;20220;-60
2022/11/25 04:30:29;;;;;;;12.95;3.95;;;10.40;99.90;;;;;;5116553;27;20595;-60
2022/11/25 04:32:55;;;;;;;12.13;4.03;;;10.30;99.90;;;;;;5134767;27;20256;-60
2022/11/25 04:35:21;;;;;;;16.98;4.82;;;10.30;99.90;;;;;;5134689;27;20256;-60
2022/11/25 04:37:46;;;;;;;13.32;4.22;;;10.30;99.90;;;;;;5134645;27;20199;-60
2022/11/25 04:40:12;;;;;;;10.15;3.65;;;10.30;99.90;;;;;;5099198;27;20601;-60
2022/11/25 04:42:38;;;;;;;13.27;4.32;;;10.30;99.90;;;;;;5116149;27;20233;-60
2022/11/25 04:45:12;;;;;;;9.95;3.90;;;10.40;99.90;;;;;;5134611;27;20175;-60
2022/11/25 04:47:38;;;;;;;12.48;4.22;;;10.40;99.90;;;;;;5134277;27;20169;-60
2022/11/25 04:50:07;;;;;;;13.77;4.35;;;10.40;99.90;;;;;;5134716;27;20168;-60
2022/11/25 04:52:34;;;;;;;15.73;4.70;;;10.50;99.90;;;;;;5134328;27;20171;-60
2022/11/25 04:54:59;;;;;;;9.23;3.92;;;10.30;99.90;;;;;;5115806;27;20228;-60
2022/11/25 04:57:25;;;;;;;12.70;3.78;;;10.30;99.90;;;;;;5134291;27;20263;-60
2022/11/25 04:59:51;;;;;;;14.32;4.28;;;10.30;99.90;;;;;;5134476;27;20543;-60
2022/11/25 05:02:19;;;;;;;13.48;4.45;;;10.20;99.90;;;;;;5134403;27;20179;-60
2022/11/25 05:04:46;;;;;;;12.30;4.20;;;9.80;99.90;;;;;;5134272;27;20268;-60
2022/11/25 05:07:13;;;;;;;9.70;3.45;;;9.80;99.90;;;;;;5134178;28;20165;-60
2022/11/25 05:09:39;;;;;;;11.35;3.55;;;9.90;99.90;;;;;;5133947;28;20253;-60
2022/11/25 05:12:06;;;;;;;12.65;3.60;;;9.80;99.90;;;;;;5134037;28;20169;-60
2022/11/25 05:14:34;;;;;;;9.23;3.80;;;9.80;99.90;;;;;;5134272;28;20627;-60
2022/11/25 05:17:03;;;;;;;10.80;4.00;;;9.70;99.90;;;;;;5115746;28;20271;-60
2022/11/25 05:19:29;;;;;;;10.25;3.63;;;9.50;99.90;;;;;;5137478;27;20176;-60
2022/11/25 05:21:55;;;;;;;11.35;3.78;;;9.60;99.90;;;;;;5103126;27;20180;-60
2022/11/25 05:24:20;;;;;;;9.52;3.45;;;9.50;99.90;;;;;;5138486;27;20655;-61
2022/11/25 05:26:46;;;;;;;12.48;4.07;;;9.50;99.90;;;;;;5138441;27;20510;-60
2022/11/25 05:29:12;;;;;;;11.70;4.10;;;9.50;99.90;;;;;;5138238;27;20257;-60
2022/11/25 05:31:38;;;;;;;13.05;4.03;;;9.70;99.90;;;;;;5120069;27;20192;-60
2022/11/25 05:34:04;;;;;;;12.95;4.28;;;9.60;99.90;;;;;;5138134;27;20198;-60
2022/11/25 05:36:30;;;;;;;15.10;4.18;;;9.70;99.90;;;;;;5119672;27;20176;-60
2022/11/25 05:38:56;;;;;;;14.60;3.83;;;9.50;99.90;;;;;;5137958;27;20633;-60
2022/11/25 05:41:23;;;;;;;11.00;3.90;;;9.50;99.90;;;;;;5119502;27;20234;-60
2022/11/25 05:43:48;;;;;;;11.80;4.25;;;9.40;99.90;;;;;;5138324;27;20593;-60
2022/11/25 05:46:14;;;;;;;12.55;3.88;;;9.30;99.90;;;;;;5119700;27;20169;-60
2022/11/25 05:48:39;;;;;;;8.15;3.67;;;9.30;99.90;;;;;;5137843;27;20200;-60
2022/11/25 05:51:05;;;;;;;8.80;3.10;;;9.30;99.90;;;;;;5137785;27;20172;-60
2022/11/25 05:53:32;;;;;;;10.43;2.60;;;9.30;99.90;;;;;;5137826;27;20199;-60
2022/11/25 05:56:03;;;;;;;9.45;3.10;;;9.30;99.90;;;;;;5119425;27;20179;-60
2022/11/25 05:58:29;;;;;;;10.95;3.47;;;9.40;99.90;;;;;;5137809;27;20180;-62
2022/11/25 06:00:57;;;;;;;12.02;4.05;;;9.30;99.90;;;;;;5136677;27;20693;-61
2022/11/25 06:03:31;;;;;;;7.95;2.83;;;9.40;99.90;;;;;;5137667;27;20521;-61
2022/11/25 06:05:58;;;;;;;10.63;3.85;;;9.40;99.90;;;;;;5137499;27;20237;-61
2022/11/25 06:08:25;;;;;;;10.63;3.22;;;9.20;99.90;;;;;;5118473;27;20208;-61
2022/11/25 06:10:51;;;;;;;12.27;3.63;;;9.20;99.90;;;;;;5137352;27;20173;-61
2022/11/25 06:13:16;;;;;;;8.90;2.80;;;9.30;99.90;;;;;;5137454;27;20168;-63
2022/11/25 06:15:44;;;;;;;13.73;4.43;;;9.20;99.90;;;;;;5102090;27;20165;-62
2022/11/25 06:18:11;;;;;;;9.93;3.50;;;9.30;99.90;;;;;;5137104;27;20606;-62
2022/11/25 06:20:37;;;;;;;15.45;3.70;;;9.30;99.90;;;;;;5118729;27;20175;-61
2022/11/25 06:23:03;;;;;;;12.73;3.50;;;9.30;99.90;;;;;;5137328;27;20241;-61
2022/11/25 06:25:29;;;;;;;11.27;3.95;;;9.40;99.90;;;;;;5119004;27;20543;-61
2022/11/25 06:27:55;;;;;;;8.20;4.30;;;9.50;99.90;;;;;;5118769;27;20207;-61
2022/11/25 06:30:21;;;;;;;12.40;3.70;;;9.40;99.90;;;;;;5135612;27;20180;-62
2022/11/25 06:32:46;;;;;;;8.40;2.95;;;9.50;99.90;;;;;;5118889;27;20172;-62
2022/11/25 06:35:12;;;;;;;12.48;3.30;;;9.60;99.90;;;;;;5136776;27;20172;-61
2022/11/25 06:37:38;;;;;;;11.65;4.57;;;9.50;99.90;;;;;;5118643;27;20169;-62
2022/11/25 06:40:04;;;;;;;10.27;4.07;;;9.40;99.90;;;;;;5118495;27;20179;-61
2022/11/25 06:42:30;;;;;;;12.77;3.55;;;9.30;99.90;;;;;;5136687;27;20651;-62
2022/11/25 06:44:56;;;;;;;12.60;4.38;;;9.40;99.90;;;;;;5136687;27;20192;-61
2022/11/25 06:47:22;;;;;;;10.02;3.13;;;9.40;99.90;;;;;;5100335;27;20230;-62
2022/11/25 06:49:48;;;;;;;12.43;3.33;;;9.20;99.90;;;;;;5135236;27;20207;-62
2022/11/25 06:52:14;;;;;;;13.73;4.45;;;9.30;99.90;;;;;;5133677;27;20638;-61
2022/11/25 06:54:40;;;;;;;15.27;4.13;;;9.40;99.90;;;;;;5134384;27;20196;-62
2022/11/25 06:57:10;;;;;;;13.73;5.53;;;9.40;99.90;;;;;;5116619;27;20436;-61
2022/11/25 06:59:36;;;;;;;14.73;6.10;;;9.40;99.90;;;;;;5136104;27;20203;-61
2022/11/25 07:02:03;;;;;;;12.55;3.97;;;9.20;99.90;;;;;;5136220;27;20253;-61
2022/11/25 07:04:29;;;;;;;15.43;4.22;;;9.30;99.90;;;;;;5136168;27;20268;-61
2022/11/25 07:06:55;;;;;;;16.63;5.68;;;9.30;99.90;;;;;;5117959;27;20656;-61
2022/11/25 07:09:21;;;;;;;13.82;5.50;;;9.30;99.90;;;;;;5136367;27;20208;-61
2022/11/25 07:11:47;;;;;;;9.88;4.20;;;9.30;99.90;;;;;;5136298;27;20177;-61
2022/11/25 07:14:15;;;;;;;15.55;5.32;;;9.20;99.90;;;;;;5136131;27;20217;-62
2022/11/25 07:16:43;;;;;;;11.50;5.32;;;9.20;99.90;;;;;;5117705;27;20567;-61
2022/11/25 07:19:11;;;;;;;14.32;4.93;;;9.30;99.90;;;;;;5136215;27;20172;-61
2022/11/25 07:21:37;;;;;;;16.27;4.93;;;9.10;99.90;;;;;;5136182;27;20621;-62
2022/11/25 07:24:05;;;;;;;11.95;4.60;;;9.00;99.90;;;;;;5136141;27;20169;-61
2022/11/25 07:26:33;;;;;;;10.15;4.38;;;8.90;99.90;;;;;;5135901;27;20180;-61
2022/11/25 07:29:02;;;;;;;17.48;4.22;;;8.90;99.90;;;;;;5135738;27;20219;-61
2022/11/25 07:31:34;;;;;;;13.77;4.63;;;8.90;99.90;;;;;;5135797;27;20176;-61
2022/11/25 07:34:06;;;;;;;13.30;4.55;;;9.10;99.90;;;;;;5135961;27;20183;-62
2022/11/25 07:36:33;;;;;;;9.40;3.78;;;9.20;99.90;;;;;;5136208;27;20502;-61
2022/11/25 07:39:01;;;;;;;16.63;5.15;;;9.30;99.90;;;;;;5135584;27;20644;-61
2022/11/25 07:41:27;;;;;;;12.30;4.00;;;9.20;99.90;;;;;;5135018;27;20185;-61
2022/11/25 07:43:56;;;;;;;14.70;5.07;;;9.20;99.90;;;;;;5117165;27;20194;-61
2022/11/25 07:46:26;;;;;;;15.25;5.32;;;9.40;99.90;;;;;;5134610;27;20192;-61
2022/11/25 07:48:54;;;;;;;14.32;4.95;;;9.40;99.90;;;;;;5134313;27;20208;-62
2022/11/25 07:51:32;;;;;;;14.50;4.60;;;9.40;99.90;;;;;;5135522;27;20186;-61
2022/11/25 07:54:00;;;;;;;16.02;5.82;;;9.40;99.90;;;;;;5135326;27;20625;-61
2022/11/25 07:56:27;;;;;;;13.40;5.80;;;9.50;99.90;;;;;;5116866;27;20168;-61
2022/11/25 07:58:53;;;;;;;17.27;6.25;;;9.60;99.90;;;;;;5135469;27;20259;-62
2022/11/25 08:01:19;;;;;;;15.00;5.65;;;9.70;99.90;;;;;;5135419;27;20588;-61
2022/11/25 08:03:46;;;;;;;15.45;5.50;;;9.80;99.90;;;;;;5135192;27;20233;-61
2022/11/25 08:06:15;;;;;;;15.10;6.45;;;10.00;99.90;;;;;;5135207;27;20169;-61
2022/11/25 08:08:41;;;;;;;15.90;5.93;;;10.00;99.90;;;;;;5135021;27;20265;-61
2022/11/25 08:11:09;;;;;;;18.40;6.40;;;10.20;99.90;;;;;;5135208;27;20221;-62
2022/11/25 08:13:35;;;;;;;15.93;5.80;;;10.20;99.90;;;;;;5135190;27;20220;-62
2022/11/25 08:16:01;;;;;;;14.32;5.88;;;10.40;99.90;;;;;;5134933;27;20180;-61
2022/11/25 08:18:27;;;;;;;18.88;6.03;;;10.30;99.90;;;;;;5116627;27;20214;-61
2022/11/25 08:20:58;;;;;;;20.48;5.85;;;10.30;99.90;;;;;;5134838;27;20201;-62
2022/11/25 08:23:24;;;;;;;13.25;5.53;;;10.30;99.90;;;;;;5116536;27;20216;-61
2022/11/25 08:25:50;;;;;;;16.88;5.95;;;10.40;99.90;;;;;;5116757;27;20176;-61
2022/11/25 08:28:15;;;;;;;15.52;6.10;;;10.40;99.90;;;;;;5116580;27;20232;-61
2022/11/25 08:30:41;;;;;;;15.98;5.97;;;10.30;99.90;;;;;;5116596;27;20179;-61
2022/11/25 08:33:07;;;;;;;15.60;5.70;;;10.30;99.90;;;;;;5134790;27;20184;-61
2022/11/25 08:35:36;;;;;;;20.88;6.50;;;10.40;99.90;;;;;;5134644;27;20652;-61
2022/11/25 08:38:07;;;;;;;19.05;6.85;;;10.20;99.90;;;;;;5134462;27;20171;-61
2022/11/25 08:40:35;;;;;;;22.52;6.68;;;10.00;99.90;;;;;;5134594;27;20199;-61
2022/11/25 08:43:01;;;;;;;18.67;6.18;;;10.10;99.90;;;;;;5134439;27;20173;-61
2022/11/25 08:45:28;;;;;;;16.02;5.80;;;10.00;99.90;;;;;;5134563;27;20224;-61
2022/11/25 08:47:54;;;;;;;12.52;6.10;;;9.90;99.90;;;;;;5134352;27;20169;-61
2022/11/25 08:50:20;;;;;;;12.82;5.47;;;10.00;99.90;;;;;;5116085;27;20257;-61
2022/11/25 08:52:45;;;;;;;18.98;6.43;;;10.10;99.90;;;;;;5133479;27;20169;-62
2022/11/25 08:55:12;;;;;;;19.15;5.70;;;10.10;99.90;;;;;;5116294;27;20174;-61
2022/11/25 08:57:37;;;;;;;18.63;6.05;;;10.00;99.90;;;;;;5134459;27;20176;-62
2022/11/25 09:00:07;;;;;;;17.17;5.40;;;10.00;99.90;;;;;;5115927;27;20177;-62
2022/11/25 09:02:33;;;;;;;15.63;5.28;;;10.00;99.90;;;;;;5134195;27;20176;-62
2022/11/25 09:04:59;;;;;;;18.88;6.07;;;10.10;99.90;;;;;;5134207;27;20172;-62
2022/11/25 09:07:25;;;;;;;11.63;5.20;;;10.00;99.90;;;;;;5134153;27;20171;-61
2022/11/25 09:09:51;;;;;;;13.68;5.03;;;9.90;99.90;;;;;;5134224;28;20204;-61
2022/11/25 09:12:17;;;;;;;12.25;4.30;;;9.90;99.90;;;;;;5134172;28;20219;-61
2022/11/25 09:14:42;;;;;;;12.13;4.28;;;9.80;99.90;;;;;;5115831;28;20206;-62
2022/11/25 09:17:10;;;;;;;13.10;4.50;;;9.90;99.90;;;;;;5134050;28;20183;-61
2022/11/25 09:19:35;;;;;;;9.80;3.60;;;10.00;99.90;;;;;;5133920;28;20258;-62
2022/11/25 09:22:01;;;;;;;9.82;3.58;;;10.10;99.90;;;;;;5115591;28;20205;-62
2022/11/25 09:24:27;;;;;;;11.70;4.00;;;10.20;99.90;;;;;;5098939;28;20649;-61
2022/11/25 09:26:53;;;;;;;8.68;3.78;;;10.10;99.90;;;;;;5133928;28;20533;-61
2022/11/25 09:29:19;;;;;;;14.27;4.45;;;10.30;99.90;;;;;;5115789;28;20300;-61
2022/11/25 09:31:45;;;;;;;13.60;4.45;;;10.40;99.90;;;;;;5133977;28;20169;-62
2022/11/25 09:34:10;;;;;;;13.20;4.40;;;10.30;99.90;;;;;;5133743;28;20525;-61
2022/11/25 09:36:36;;;;;;;14.07;5.07;;;10.30;99.90;;;;;;5115763;28;20222;-62
2022/11/25 09:39:02;;;;;;;13.70;4.63;;;10.40;99.90;;;;;;5133979;28;20664;-62
2022/11/25 09:47:45;;;;;;;11.63;4.28;;;10.30;99.90;;;;;;5134113;28;20187;-61
2022/11/25 09:50:22;;;;;;;13.48;4.30;;;10.30;99.90;;;;;;5133772;28;20188;-62
2022/11/25 09:53:22;;;;;;;12.35;3.92;;;10.40;99.90;;;;;;5115535;28;20180;-62
2022/11/25 09:55:50;;;;;;;12.07;3.38;;;10.50;99.90;;;;;;5134015;28;20179;-61
2022/11/25 09:58:37;;;;;;;12.73;4.03;;;10.70;99.90;;;;;;5115290;28;20216;-61
2022/11/25 10:01:06;;;;;;;10.43;3.70;;;10.70;99.90;;;;;;5133735;28;20176;-62
2022/11/25 10:03:45;;;;;;;12.48;3.55;;;10.50;99.90;;;;;;5115218;27;20173;-61
2022/11/25 10:06:24;;;;;;;7.07;3.20;;;10.50;99.90;;;;;;5137553;27;20225;-62
2022/11/25 10:08:54;;;;;;;7.43;3.20;;;10.60;99.90;;;;;;5137379;27;20704;-61
2022/11/25 10:11:20;;;;;;;8.13;3.22;;;10.50;99.90;;;;;;5137785;27;20251;-62
2022/11/25 10:13:48;;;;;;;10.10;3.40;;;10.50;99.90;;;;;;5137380;27;20736;-62
2022/11/25 10:16:38;;;;;;;11.13;3.75;;;10.70;99.90;;;;;;5137564;27;20168;-61
2022/11/25 10:19:36;;;;;;;7.68;2.85;;;10.70;99.90;;;;;;5087900;27;20187;-61
2022/11/25 10:22:21;;;;;;;5.88;2.47;;;10.80;99.90;;;;;;5137300;27;20649;-62
2022/11/25 10:24:49;;;;;;;9.13;2.80;;;10.60;99.90;;;;;;5137382;27;20168;-62
2022/11/25 10:27:23;;;;;;;6.55;2.22;;;10.60;99.90;;;;;;5137221;27;20168;-62
2022/11/25 10:30:00;;;;;;;8.00;2.67;;;10.60;99.90;;;;;;5137191;27;20384;-61
2022/11/25 10:32:38;;;;;;;9.07;2.67;;;10.70;99.90;;;;;;5136775;27;20164;-62
2022/11/25 10:35:13;;;;;;;5.40;1.92;;;10.80;99.90;;;;;;5137157;27;20168;-61
2022/11/25 10:37:43;;;;;;;8.27;2.55;;;10.90;99.90;;;;;;5137046;27;20173;-61
2022/11/25 10:40:15;;;;;;;6.97;2.42;;;10.90;99.90;;;;;;5136845;27;20200;-61
2022/11/25 10:42:41;;;;;;;8.35;2.33;;;10.80;99.90;;;;;;5136912;27;20171;-61
2022/11/25 10:45:08;;;;;;;7.50;2.83;;;10.80;99.90;;;;;;5118461;27;20176;-61
2022/11/25 10:47:44;;;;;;;6.90;2.38;;;10.80;99.90;;;;;;5136929;27;20165;-61
2022/11/25 10:50:33;;;;;;;7.57;2.50;;;10.80;99.90;;;;;;5136813;27;20637;-61
2022/11/25 10:53:08;;;;;;;6.80;2.78;;;11.00;99.90;;;;;;5136764;27;20200;-61
2022/11/25 10:55:35;;;;;;;7.32;3.05;;;10.90;99.90;;;;;;5136587;27;20254;-61
2022/11/25 10:58:28;;;;;;;7.65;2.50;;;10.90;99.90;;;;;;5136695;27;20204;-61
2022/11/25 11:01:12;;;;;;;9.23;2.53;;;11.10;99.90;;;;;;5136632;27;20525;-61
2022/11/25 11:03:38;;;;;;;10.60;3.67;;;11.20;99.90;;;;;;5136526;27;20613;-61
2022/11/25 11:06:04;;;;;;;9.10;3.30;;;11.20;99.90;;;;;;5136223;27;20194;-61
2022/11/25 11:08:40;;;;;;;8.07;2.85;;;11.20;99.90;;;;;;5136378;27;20208;-61
2022/11/25 11:11:19;;;;;;;9.82;3.05;;;11.40;99.90;;;;;;5136368;27;20586;-61
2022/11/25 11:13:46;;;;;;;7.93;3.50;;;11.40;99.90;;;;;;5136728;27;20169;-61
2022/11/25 11:16:41;;;;;;;9.70;3.53;;;11.30;99.90;;;;;;5135401;27;20165;-61
2022/11/25 11:19:21;;;;;;;7.68;3.03;;;11.30;99.90;;;;;;5134332;27;20180;-61
2022/11/25 11:21:47;;;;;;;8.23;3.22;;;11.30;99.90;;;;;;5136202;27;20164;-61
2022/11/25 11:24:22;;;;;;;7.75;3.38;;;11.50;99.90;;;;;;5117628;27;20626;-61
2022/11/25 11:27:20;;;;;;;9.80;3.35;;;11.60;99.90;;;;;;5135871;27;20179;-61
2022/11/25 11:29:45;;;;;;;8.55;3.70;;;11.70;99.90;;;;;;5135055;27;20223;-61
2022/11/25 11:32:27;;;;;;;7.47;3.03;;;11.60;99.90;;;;;;5135942;27;20180;-61
2022/11/25 11:35:11;;;;;;;9.07;3.10;;;11.80;99.90;;;;;;5135824;27;20293;-61
2022/11/25 11:37:46;;;;;;;7.50;3.35;;;11.80;99.90;;;;;;5135925;27;20225;-61
2022/11/25 11:40:11;;;;;;;10.23;3.42;;;11.70;99.90;;;;;;5135654;27;20188;-61
2022/11/25 11:43:05;;;;;;;10.35;3.45;;;11.60;99.90;;;;;;5135846;27;20251;-61
2022/11/25 11:45:54;;;;;;;10.73;3.65;;;11.70;99.90;;;;;;5135761;27;20621;-61
2022/11/25 11:48:54;;;;;;;9.00;3.45;;;11.70;99.90;;;;;;5135634;27;20205;-61
2022/11/25 11:51:37;;;;;;;10.10;3.35;;;11.70;99.90;;;;;;5044341;27;20199;-61
2022/11/25 11:54:17;;;;;;;9.05;3.47;;;11.80;99.90;;;;;;5135297;27;20202;-61
2022/11/25 11:56:50;;;;;;;11.38;3.65;;;11.80;99.90;;;;;;5135553;27;20183;-61
2022/11/25 11:59:41;;;;;;;11.95;3.90;;;11.80;99.90;;;;;;5135486;27;20168;-61
2022/11/25 12:02:22;;;;;;;10.90;3.92;;;11.70;99.90;;;;;;5135276;27;20160;-61
2022/11/25 12:05:09;;;;;;;9.55;3.08;;;11.70;99.90;;;;;;5135411;27;20617;-61
2022/11/25 12:07:56;;;;;;;12.07;3.50;;;11.70;99.90;;;;;;5135253;27;20175;-61
2022/11/25 12:10:48;;;;;;;10.55;3.88;;;12.00;99.90;;;;;;5135061;27;20184;-61
2022/11/25 12:13:32;;;;;;;11.55;4.05;;;11.70;99.90;;;;;;5135239;27;20686;-61
2022/11/25 12:16:12;;;;;;;13.32;3.40;;;11.80;99.90;;;;;;5135266;27;20175;-61
2022/11/25 12:18:46;;;;;;;8.88;3.90;;;11.90;99.90;;;;;;5134887;27;20187;-61
2022/11/25 12:21:27;;;;;;;12.23;4.13;;;11.90;99.90;;;;;;5135155;27;20618;-61
2022/11/25 12:24:07;;;;;;;9.45;3.70;;;11.90;99.90;;;;;;5134759;27;20638;-61
2022/11/25 12:26:40;;;;;;;10.80;3.85;;;12.00;99.90;;;;;;5134917;27;20222;-61
2022/11/25 12:29:11;;;;;;;13.68;3.83;;;12.00;99.90;;;;;;5134642;27;20208;-61
2022/11/25 12:31:42;;;;;;;11.05;3.75;;;12.20;99.90;;;;;;5134756;27;20214;-61
2022/11/25 12:34:26;;;;;;;11.75;3.72;;;12.30;99.90;;;;;;5116485;27;20503;-61
2022/11/25 12:37:03;;;;;;;11.20;3.88;;;12.50;99.90;;;;;;5134887;27;20172;-61
2022/11/25 12:40:09;;;;;;;12.95;4.13;;;12.60;99.90;;;;;;5134664;27;20176;-62
2022/11/25 12:42:38;;;;;;;12.27;3.90;;;12.70;99.90;;;;;;5112040;27;20231;-61
2022/11/25 12:45:33;;;;;;;11.55;3.58;;;12.70;99.90;;;;;;5134593;27;20169;-61
2022/11/25 12:47:59;;;;;;;10.32;3.97;;;12.90;99.90;;;;;;5112177;27;20598;-61
2022/11/25 12:50:42;;;;;;;12.07;3.65;;;12.90;99.90;;;;;;5116117;27;20172;-62
2022/11/25 12:53:19;;;;;;;11.57;3.50;;;12.90;99.90;;;;;;5134569;27;20165;-61
2022/11/25 12:55:44;;;;;;;12.48;4.05;;;12.80;99.90;;;;;;5134433;27;20172;-61
2022/11/25 12:58:31;;;;;;;11.85;3.90;;;12.50;99.90;;;;;;5134295;27;20267;-62
2022/11/25 13:01:43;;;;;;;11.75;3.90;;;12.60;99.90;;;;;;5116066;27;20174;-62
2022/11/25 13:04:38;;;;;;;10.98;4.00;;;12.80;99.90;;;;;;5031290;28;20286;-62
2022/11/25 13:07:22;;;;;;;13.27;4.57;;;12.80;99.90;;;;;;5031091;28;20233;-62
2022/11/25 13:10:26;;;;;;;11.85;4.53;;;12.80;99.90;;;;;;5117819;27;20311;-61
2022/11/25 13:13:06;;;;;;;12.20;4.18;;;12.90;99.90;;;;;;5030903;28;20176;-61